Terminal Aerodrome Forecast
Issued by NWS

Current Version | Previous Version | Graphics & Text | Print | Product List | Glossary On
Versions: 1 2 3 4 5 6 7 8 9 10 11 12 13 14 15 16 17
276
FTUS41 KRNK 192327
TAFLWB
TAF
KLWB 192327Z 2000/2024 30006KT P6SM FEW045
     FM200600 VRB03KT P6SM SKC
     FM200900 00000KT 1/2SM FG OVC001
     FM201300 29003KT P6SM SKC=

USA.gov is the U.S. government's official web portal to all federal, state and local government web resources and services.